sensor_id;sensor_type;location;lat;lon;timestamp;temperature;humidity
48162;DHT22;33950;48.154;16.316;2022-10-16T00:02:39;15.50;99.90
48162;DHT22;33950;48.154;16.316;2022-10-16T00:05:25;15.50;99.90
48162;DHT22;33950;48.154;16.316;2022-10-16T00:08:12;15.50;99.90
48162;DHT22;33950;48.154;16.316;2022-10-16T00:11:00;15.50;99.90
48162;DHT22;33950;48.154;16.316;2022-10-16T00:13:48;15.50;99.90
48162;DHT22;33950;48.154;16.316;2022-10-16T00:16:35;15.50;99.90
48162;DHT22;33950;48.154;16.316;2022-10-16T00:19:21;15.50;99.90
48162;DHT22;33950;48.154;16.316;2022-10-16T00:22:07;15.50;99.90
48162;DHT22;33950;48.154;16.316;2022-10-16T00:24:54;15.40;99.90
48162;DHT22;33950;48.154;16.316;2022-10-16T00:27:40;15.30;99.90
48162;DHT22;33950;48.154;16.316;2022-10-16T00:30:26;15.30;99.90
48162;DHT22;33950;48.154;16.316;2022-10-16T00:33:13;15.20;99.90
48162;DHT22;33950;48.154;16.316;2022-10-16T00:35:59;15.20;99.90
48162;DHT22;33950;48.154;16.316;2022-10-16T00:38:46;15.20;99.90
48162;DHT22;33950;48.154;16.316;2022-10-16T00:41:34;15.20;99.90
48162;DHT22;33950;48.154;16.316;2022-10-16T00:44:43;15.20;99.90
48162;DHT22;33950;48.154;16.316;2022-10-16T00:47:31;15.20;99.90
48162;DHT22;33950;48.154;16.316;2022-10-16T00:50:24;15.10;99.90
48162;DHT22;33950;48.154;16.316;2022-10-16T00:53:12;15.00;99.90
48162;DHT22;33950;48.154;16.316;2022-10-16T00:55:58;15.00;99.90
48162;DHT22;33950;48.154;16.316;2022-10-16T00:58:46;15.00;99.90
48162;DHT22;33950;48.154;16.316;2022-10-16T01:01:32;15.00;99.90
48162;DHT22;33950;48.154;16.316;2022-10-16T01:04:19;15.10;99.90
48162;DHT22;33950;48.154;16.316;2022-10-16T01:07:11;15.10;99.90
48162;DHT22;33950;48.154;16.316;2022-10-16T01:10:11;15.20;99.90
48162;DHT22;33950;48.154;16.316;2022-10-16T01:13:04;15.10;99.90
48162;DHT22;33950;48.154;16.316;2022-10-16T01:15:56;15.00;99.90
48162;DHT22;33950;48.154;16.316;2022-10-16T01:18:47;14.90;99.90
48162;DHT22;33950;48.154;16.316;2022-10-16T01:21:40;15.00;99.90
48162;DHT22;33950;48.154;16.316;2022-10-16T01:24:32;15.00;99.90
48162;DHT22;33950;48.154;16.316;2022-10-16T01:27:22;15.00;99.90
48162;DHT22;33950;48.154;16.316;2022-10-16T01:30:15;15.00;99.90
48162;DHT22;33950;48.154;16.316;2022-10-16T01:33:06;15.10;99.90
48162;DHT22;33950;48.154;16.316;2022-10-16T01:35:58;15.10;99.90
48162;DHT22;33950;48.154;16.316;2022-10-16T01:38:49;15.00;99.90
48162;DHT22;33950;48.154;16.316;2022-10-16T01:41:40;15.10;99.90
48162;DHT22;33950;48.154;16.316;2022-10-16T01:44:32;14.90;99.90
48162;DHT22;33950;48.154;16.316;2022-10-16T01:47:20;14.90;99.90
48162;DHT22;33950;48.154;16.316;2022-10-16T01:50:08;14.90;99.90
48162;DHT22;33950;48.154;16.316;2022-10-16T01:52:56;14.90;99.90
48162;DHT22;33950;48.154;16.316;2022-10-16T01:55:46;14.80;99.90
48162;DHT22;33950;48.154;16.316;2022-10-16T01:58:36;14.80;99.90
48162;DHT22;33950;48.154;16.316;2022-10-16T02:01:26;14.80;99.90
48162;DHT22;33950;48.154;16.316;2022-10-16T02:04:19;14.80;99.90
48162;DHT22;33950;48.154;16.316;2022-10-16T02:07:07;14.90;99.90
48162;DHT22;33950;48.154;16.316;2022-10-16T02:09:54;14.90;99.90
48162;DHT22;33950;48.154;16.316;2022-10-16T02:12:42;14.90;99.90
48162;DHT22;33950;48.154;16.316;2022-10-16T02:15:30;14.90;99.90
48162;DHT22;33950;48.154;16.316;2022-10-16T02:18:17;14.80;99.90
48162;DHT22;33950;48.154;16.316;2022-10-16T02:21:08;14.90;99.90
48162;DHT22;33950;48.154;16.316;2022-10-16T02:24:03;14.80;99.90
48162;DHT22;33950;48.154;16.316;2022-10-16T02:26:56;14.70;99.90
48162;DHT22;33950;48.154;16.316;2022-10-16T02:29:46;14.70;99.90
48162;DHT22;33950;48.154;16.316;2022-10-16T02:32:37;14.80;99.90
48162;DHT22;33950;48.154;16.316;2022-10-16T02:35:26;14.70;99.90
48162;DHT22;33950;48.154;16.316;2022-10-16T02:38:14;14.70;99.90
48162;DHT22;33950;48.154;16.316;2022-10-16T02:41:01;14.70;99.90
48162;DHT22;33950;48.154;16.316;2022-10-16T02:43:47;14.70;99.90
48162;DHT22;33950;48.154;16.316;2022-10-16T02:46:34;14.80;99.90
48162;DHT22;33950;48.154;16.316;2022-10-16T02:49:20;14.80;99.90
48162;DHT22;33950;48.154;16.316;2022-10-16T02:52:08;14.70;99.90
48162;DHT22;33950;48.154;16.316;2022-10-16T02:54:54;14.80;99.90
48162;DHT22;33950;48.154;16.316;2022-10-16T02:57:40;14.90;99.90
48162;DHT22;33950;48.154;16.316;2022-10-16T03:00:26;14.90;99.90
48162;DHT22;33950;48.154;16.316;2022-10-16T03:03:12;14.90;99.90
48162;DHT22;33950;48.154;16.316;2022-10-16T03:05:58;15.00;99.90
48162;DHT22;33950;48.154;16.316;2022-10-16T03:08:46;14.90;99.90
48162;DHT22;33950;48.154;16.316;2022-10-16T03:11:32;14.90;99.90
48162;DHT22;33950;48.154;16.316;2022-10-16T03:14:18;15.00;99.90
48162;DHT22;33950;48.154;16.316;2022-10-16T03:17:04;14.80;99.90
48162;DHT22;33950;48.154;16.316;2022-10-16T03:19:50;14.60;99.90
48162;DHT22;33950;48.154;16.316;2022-10-16T03:22:36;14.60;99.90
48162;DHT22;33950;48.154;16.316;2022-10-16T03:25:24;14.70;99.90
48162;DHT22;33950;48.154;16.316;2022-10-16T03:28:10;14.60;99.90
48162;DHT22;33950;48.154;16.316;2022-10-16T03:30:56;14.70;99.90
48162;DHT22;33950;48.154;16.316;2022-10-16T03:33:42;14.70;99.90
48162;DHT22;33950;48.154;16.316;2022-10-16T03:36:28;14.70;99.90
48162;DHT22;33950;48.154;16.316;2022-10-16T03:39:14;14.60;99.90
48162;DHT22;33950;48.154;16.316;2022-10-16T03:42:02;14.60;99.90
48162;DHT22;33950;48.154;16.316;2022-10-16T03:44:48;14.50;99.90
48162;DHT22;33950;48.154;16.316;2022-10-16T03:47:34;14.40;99.90
48162;DHT22;33950;48.154;16.316;2022-10-16T03:50:20;14.40;99.90
48162;DHT22;33950;48.154;16.316;2022-10-16T03:53:06;14.40;99.90
48162;DHT22;33950;48.154;16.316;2022-10-16T03:55:52;14.30;99.90
48162;DHT22;33950;48.154;16.316;2022-10-16T03:58:40;14.30;99.90
48162;DHT22;33950;48.154;16.316;2022-10-16T04:01:26;14.30;99.90
48162;DHT22;33950;48.154;16.316;2022-10-16T04:04:12;14.40;99.90
48162;DHT22;33950;48.154;16.316;2022-10-16T04:06:58;14.30;99.90
48162;DHT22;33950;48.154;16.316;2022-10-16T04:09:44;14.30;99.90
48162;DHT22;33950;48.154;16.316;2022-10-16T04:12:30;14.40;99.90
48162;DHT22;33950;48.154;16.316;2022-10-16T04:15:18;14.40;99.90
48162;DHT22;33950;48.154;16.316;2022-10-16T04:18:04;14.40;99.90
48162;DHT22;33950;48.154;16.316;2022-10-16T04:20:50;14.30;99.90
48162;DHT22;33950;48.154;16.316;2022-10-16T04:23:36;14.20;99.90
48162;DHT22;33950;48.154;16.316;2022-10-16T04:26:23;14.20;99.90
48162;DHT22;33950;48.154;16.316;2022-10-16T04:29:09;14.10;99.90
48162;DHT22;33950;48.154;16.316;2022-10-16T04:31:56;14.00;99.90
48162;DHT22;33950;48.154;16.316;2022-10-16T04:34:42;14.00;99.90
48162;DHT22;33950;48.154;16.316;2022-10-16T04:37:28;14.10;99.90
48162;DHT22;33950;48.154;16.316;2022-10-16T04:40:14;14.10;99.90
48162;DHT22;33950;48.154;16.316;2022-10-16T04:43:01;14.00;99.90
48162;DHT22;33950;48.154;16.316;2022-10-16T04:45:47;14.10;99.90
48162;DHT22;33950;48.154;16.316;2022-10-16T04:48:34;14.10;99.90
48162;DHT22;33950;48.154;16.316;2022-10-16T04:51:20;14.10;99.90
48162;DHT22;33950;48.154;16.316;2022-10-16T04:54:06;14.20;99.90
48162;DHT22;33950;48.154;16.316;2022-10-16T04:56:52;14.30;99.90
48162;DHT22;33950;48.154;16.316;2022-10-16T04:59:38;14.30;99.90
48162;DHT22;33950;48.154;16.316;2022-10-16T05:02:25;14.30;99.90
48162;DHT22;33950;48.154;16.316;2022-10-16T05:05:12;14.40;99.90
48162;DHT22;33950;48.154;16.316;2022-10-16T05:08:00;14.40;99.90
48162;DHT22;33950;48.154;16.316;2022-10-16T05:10:46;14.50;99.90
48162;DHT22;33950;48.154;16.316;2022-10-16T05:13:32;14.50;99.90
48162;DHT22;33950;48.154;16.316;2022-10-16T05:16:18;14.50;99.90
48162;DHT22;33950;48.154;16.316;2022-10-16T05:19:04;14.60;99.90
48162;DHT22;33950;48.154;16.316;2022-10-16T05:21:52;14.60;99.90
48162;DHT22;33950;48.154;16.316;2022-10-16T05:24:38;14.50;99.90
48162;DHT22;33950;48.154;16.316;2022-10-16T05:27:24;14.40;99.90
48162;DHT22;33950;48.154;16.316;2022-10-16T05:30:10;14.50;99.90
48162;DHT22;33950;48.154;16.316;2022-10-16T05:32:56;14.50;99.90
48162;DHT22;33950;48.154;16.316;2022-10-16T05:35:42;14.50;99.90
48162;DHT22;33950;48.154;16.316;2022-10-16T05:38:31;14.50;99.90
48162;DHT22;33950;48.154;16.316;2022-10-16T05:41:17;14.40;99.90
48162;DHT22;33950;48.154;16.316;2022-10-16T05:44:07;14.30;99.90
48162;DHT22;33950;48.154;16.316;2022-10-16T05:46:53;14.20;99.90
48162;DHT22;33950;48.154;16.316;2022-10-16T05:49:39;14.10;99.90
48162;DHT22;33950;48.154;16.316;2022-10-16T05:52:26;14.10;99.90
48162;DHT22;33950;48.154;16.316;2022-10-16T05:55:14;14.20;99.90
48162;DHT22;33950;48.154;16.316;2022-10-16T05:58:01;14.20;99.90
48162;DHT22;33950;48.154;16.316;2022-10-16T06:00:53;14.20;99.90
48162;DHT22;33950;48.154;16.316;2022-10-16T06:03:40;14.30;99.90
48162;DHT22;33950;48.154;16.316;2022-10-16T06:06:27;14.30;99.90
48162;DHT22;33950;48.154;16.316;2022-10-16T06:09:14;14.30;99.90
48162;DHT22;33950;48.154;16.316;2022-10-16T06:12:02;14.20;99.90
48162;DHT22;33950;48.154;16.316;2022-10-16T06:14:48;14.20;99.90
48162;DHT22;33950;48.154;16.316;2022-10-16T06:17:34;14.30;99.90
48162;DHT22;33950;48.154;16.316;2022-10-16T06:20:20;14.30;99.90
48162;DHT22;33950;48.154;16.316;2022-10-16T06:23:06;14.20;99.90
48162;DHT22;33950;48.154;16.316;2022-10-16T06:25:52;14.30;99.90
48162;DHT22;33950;48.154;16.316;2022-10-16T06:28:40;14.40;99.90
48162;DHT22;33950;48.154;16.316;2022-10-16T06:31:27;14.40;99.90
48162;DHT22;33950;48.154;16.316;2022-10-16T06:34:16;14.50;99.90
48162;DHT22;33950;48.154;16.316;2022-10-16T06:37:02;14.50;99.90
48162;DHT22;33950;48.154;16.316;2022-10-16T06:39:48;14.50;99.90
48162;DHT22;33950;48.154;16.316;2022-10-16T06:42:34;14.50;99.90
48162;DHT22;33950;48.154;16.316;2022-10-16T06:45:22;14.50;99.90
48162;DHT22;33950;48.154;16.316;2022-10-16T06:48:08;14.40;99.90
48162;DHT22;33950;48.154;16.316;2022-10-16T06:50:58;14.40;99.90
48162;DHT22;33950;48.154;16.316;2022-10-16T06:53:46;14.40;99.90
48162;DHT22;33950;48.154;16.316;2022-10-16T06:56:35;14.40;99.90
48162;DHT22;33950;48.154;16.316;2022-10-16T06:59:21;14.40;99.90
48162;DHT22;33950;48.154;16.316;2022-10-16T07:02:09;14.40;99.90
48162;DHT22;33950;48.154;16.316;2022-10-16T07:04:55;14.30;99.90
48162;DHT22;33950;48.154;16.316;2022-10-16T07:07:42;14.40;99.90
48162;DHT22;33950;48.154;16.316;2022-10-16T07:10:28;14.40;99.90
48162;DHT22;33950;48.154;16.316;2022-10-16T07:13:14;14.60;99.90
48162;DHT22;33950;48.154;16.316;2022-10-16T07:16:04;14.70;99.90
48162;DHT22;33950;48.154;16.316;2022-10-16T07:18:53;14.70;99.90
48162;DHT22;33950;48.154;16.316;2022-10-16T07:21:44;14.60;99.90
48162;DHT22;33950;48.154;16.316;2022-10-16T07:24:30;14.50;99.90
48162;DHT22;33950;48.154;16.316;2022-10-16T07:27:16;14.60;99.90
48162;DHT22;33950;48.154;16.316;2022-10-16T07:30:03;14.60;99.90
48162;DHT22;33950;48.154;16.316;2022-10-16T07:32:50;14.50;99.90
48162;DHT22;33950;48.154;16.316;2022-10-16T07:35:37;14.60;99.90
48162;DHT22;33950;48.154;16.316;2022-10-16T07:38:23;14.80;99.90
48162;DHT22;33950;48.154;16.316;2022-10-16T07:41:10;15.00;99.90
48162;DHT22;33950;48.154;16.316;2022-10-16T07:43:57;15.10;99.90
48162;DHT22;33950;48.154;16.316;2022-10-16T07:46:45;15.10;99.90
48162;DHT22;33950;48.154;16.316;2022-10-16T07:49:32;15.10;99.90
48162;DHT22;33950;48.154;16.316;2022-10-16T07:52:19;15.10;99.90
48162;DHT22;33950;48.154;16.316;2022-10-16T07:55:06;15.10;99.90
48162;DHT22;33950;48.154;16.316;2022-10-16T07:57:52;15.00;99.90
48162;DHT22;33950;48.154;16.316;2022-10-16T08:00:38;15.00;99.90
48162;DHT22;33950;48.154;16.316;2022-10-16T08:03:24;15.00;99.90
48162;DHT22;33950;48.154;16.316;2022-10-16T08:06:10;15.00;99.90
48162;DHT22;33950;48.154;16.316;2022-10-16T08:08:58;15.10;99.90
48162;DHT22;33950;48.154;16.316;2022-10-16T08:11:45;15.10;99.90
48162;DHT22;33950;48.154;16.316;2022-10-16T08:14:31;15.00;99.90
48162;DHT22;33950;48.154;16.316;2022-10-16T08:17:17;15.00;99.90
48162;DHT22;33950;48.154;16.316;2022-10-16T08:20:04;15.00;99.90
48162;DHT22;33950;48.154;16.316;2022-10-16T08:22:50;14.90;99.90
48162;DHT22;33950;48.154;16.316;2022-10-16T08:25:39;14.90;99.90
48162;DHT22;33950;48.154;16.316;2022-10-16T08:28:25;14.90;99.90
48162;DHT22;33950;48.154;16.316;2022-10-16T08:31:12;15.00;99.90
48162;DHT22;33950;48.154;16.316;2022-10-16T08:33:59;15.10;99.90
48162;DHT22;33950;48.154;16.316;2022-10-16T08:36:45;15.20;99.90
48162;DHT22;33950;48.154;16.316;2022-10-16T08:39:31;15.30;99.90
48162;DHT22;33950;48.154;16.316;2022-10-16T08:42:32;15.40;99.90
48162;DHT22;33950;48.154;16.316;2022-10-16T08:45:29;15.40;99.90
48162;DHT22;33950;48.154;16.316;2022-10-16T08:48:20;15.30;99.90
48162;DHT22;33950;48.154;16.316;2022-10-16T08:51:19;15.30;99.90
48162;DHT22;33950;48.154;16.316;2022-10-16T08:54:10;15.30;99.90
48162;DHT22;33950;48.154;16.316;2022-10-16T08:57:07;15.40;99.90
48162;DHT22;33950;48.154;16.316;2022-10-16T08:59:59;15.40;99.90
48162;DHT22;33950;48.154;16.316;2022-10-16T09:02:51;15.30;99.90
48162;DHT22;33950;48.154;16.316;2022-10-16T09:05:51;15.30;99.90
48162;DHT22;33950;48.154;16.316;2022-10-16T09:08:47;15.30;99.90
48162;DHT22;33950;48.154;16.316;2022-10-16T09:11:44;15.20;99.90
48162;DHT22;33950;48.154;16.316;2022-10-16T09:14:51;15.20;99.90
48162;DHT22;33950;48.154;16.316;2022-10-16T09:17:48;15.20;99.90
48162;DHT22;33950;48.154;16.316;2022-10-16T09:20:43;15.20;99.90
48162;DHT22;33950;48.154;16.316;2022-10-16T09:23:35;15.20;99.90
48162;DHT22;33950;48.154;16.316;2022-10-16T09:26:21;15.20;99.90
48162;DHT22;33950;48.154;16.316;2022-10-16T09:29:10;15.30;99.90
48162;DHT22;33950;48.154;16.316;2022-10-16T09:31:58;15.40;99.90
48162;DHT22;33950;48.154;16.316;2022-10-16T09:34:55;15.50;99.90
48162;DHT22;33950;48.154;16.316;2022-10-16T09:37:45;15.50;99.90
48162;DHT22;33950;48.154;16.316;2022-10-16T09:40:34;15.70;99.90
48162;DHT22;33950;48.154;16.316;2022-10-16T09:43:23;15.80;99.90
48162;DHT22;33950;48.154;16.316;2022-10-16T09:46:22;15.70;99.90
48162;DHT22;33950;48.154;16.316;2022-10-16T09:49:20;15.70;99.90
48162;DHT22;33950;48.154;16.316;2022-10-16T09:52:13;15.80;99.90
48162;DHT22;33950;48.154;16.316;2022-10-16T09:55:01;15.80;99.90
48162;DHT22;33950;48.154;16.316;2022-10-16T09:57:51;15.70;99.90
48162;DHT22;33950;48.154;16.316;2022-10-16T10:00:41;15.60;99.90
48162;DHT22;33950;48.154;16.316;2022-10-16T10:03:36;15.50;99.90
48162;DHT22;33950;48.154;16.316;2022-10-16T10:06:25;15.50;99.90
48162;DHT22;33950;48.154;16.316;2022-10-16T10:09:22;15.60;99.90
48162;DHT22;33950;48.154;16.316;2022-10-16T10:12:18;15.60;99.90
48162;DHT22;33950;48.154;16.316;2022-10-16T10:15:07;15.60;99.90
48162;DHT22;33950;48.154;16.316;2022-10-16T10:17:57;15.60;99.90
48162;DHT22;33950;48.154;16.316;2022-10-16T10:20:43;15.60;99.90
48162;DHT22;33950;48.154;16.316;2022-10-16T10:23:30;15.50;99.90
48162;DHT22;33950;48.154;16.316;2022-10-16T10:26:21;15.60;99.90
48162;DHT22;33950;48.154;16.316;2022-10-16T10:29:16;15.80;99.90
48162;DHT22;33950;48.154;16.316;2022-10-16T10:32:16;15.80;99.90
48162;DHT22;33950;48.154;16.316;2022-10-16T10:35:13;15.70;99.90
48162;DHT22;33950;48.154;16.316;2022-10-16T10:38:06;15.70;99.90
48162;DHT22;33950;48.154;16.316;2022-10-16T10:41:07;15.70;99.90
48162;DHT22;33950;48.154;16.316;2022-10-16T10:44:07;15.70;99.90
48162;DHT22;33950;48.154;16.316;2022-10-16T10:47:00;15.60;99.90
48162;DHT22;33950;48.154;16.316;2022-10-16T10:49:54;15.70;99.90
48162;DHT22;33950;48.154;16.316;2022-10-16T10:52:51;15.60;99.90
48162;DHT22;33950;48.154;16.316;2022-10-16T10:55:44;15.70;99.90
48162;DHT22;33950;48.154;16.316;2022-10-16T11:01:56;15.80;99.90
48162;DHT22;33950;48.154;16.316;2022-10-16T11:08:08;15.80;99.90
48162;DHT22;33950;48.154;16.316;2022-10-16T11:11:00;15.90;99.90
48162;DHT22;33950;48.154;16.316;2022-10-16T11:13:54;15.90;99.90
48162;DHT22;33950;48.154;16.316;2022-10-16T11:16:44;16.00;99.90
48162;DHT22;33950;48.154;16.316;2022-10-16T11:19:39;16.00;99.90
48162;DHT22;33950;48.154;16.316;2022-10-16T11:22:32;16.00;99.90
48162;DHT22;33950;48.154;16.316;2022-10-16T11:25:21;16.00;99.90
48162;DHT22;33950;48.154;16.316;2022-10-16T11:28:11;16.10;99.90
48162;DHT22;33950;48.154;16.316;2022-10-16T11:31:04;16.10;99.90
48162;DHT22;33950;48.154;16.316;2022-10-16T11:33:57;16.10;99.90
48162;DHT22;33950;48.154;16.316;2022-10-16T11:36:53;16.10;99.90
48162;DHT22;33950;48.154;16.316;2022-10-16T11:39:43;16.20;99.90
48162;DHT22;33950;48.154;16.316;2022-10-16T11:42:33;16.30;99.90
48162;DHT22;33950;48.154;16.316;2022-10-16T11:45:28;16.40;99.90
48162;DHT22;33950;48.154;16.316;2022-10-16T11:48:23;16.50;99.90
48162;DHT22;33950;48.154;16.316;2022-10-16T11:51:16;16.70;99.90
48162;DHT22;33950;48.154;16.316;2022-10-16T11:54:14;16.90;99.90
48162;DHT22;33950;48.154;16.316;2022-10-16T11:57:09;17.30;99.90
48162;DHT22;33950;48.154;16.316;2022-10-16T11:59:59;17.60;99.90
48162;DHT22;33950;48.154;16.316;2022-10-16T12:02:54;17.80;99.90
48162;DHT22;33950;48.154;16.316;2022-10-16T12:05:55;17.80;99.90
48162;DHT22;33950;48.154;16.316;2022-10-16T12:08:45;17.80;99.90
48162;DHT22;33950;48.154;16.316;2022-10-16T12:11:35;18.50;99.90
48162;DHT22;33950;48.154;16.316;2022-10-16T12:14:35;18.90;99.90
48162;DHT22;33950;48.154;16.316;2022-10-16T12:17:27;19.20;99.90
48162;DHT22;33950;48.154;16.316;2022-10-16T12:20:28;19.40;99.90
48162;DHT22;33950;48.154;16.316;2022-10-16T12:23:20;19.90;99.90
48162;DHT22;33950;48.154;16.316;2022-10-16T12:26:08;20.00;99.90
48162;DHT22;33950;48.154;16.316;2022-10-16T12:28:55;20.10;99.90
48162;DHT22;33950;48.154;16.316;2022-10-16T12:31:45;20.30;99.90
48162;DHT22;33950;48.154;16.316;2022-10-16T12:34:39;20.50;99.90
48162;DHT22;33950;48.154;16.316;2022-10-16T12:37:29;20.80;99.90
48162;DHT22;33950;48.154;16.316;2022-10-16T12:40:25;20.80;99.90
48162;DHT22;33950;48.154;16.316;2022-10-16T12:43:25;21.00;99.80
48162;DHT22;33950;48.154;16.316;2022-10-16T12:46:33;21.30;99.50
48162;DHT22;33950;48.154;16.316;2022-10-16T12:49:31;21.40;99.30
48162;DHT22;33950;48.154;16.316;2022-10-16T12:52:28;21.70;98.80
48162;DHT22;33950;48.154;16.316;2022-10-16T12:55:17;21.70;98.60
48162;DHT22;33950;48.154;16.316;2022-10-16T12:58:12;21.80;98.40
48162;DHT22;33950;48.154;16.316;2022-10-16T13:01:08;21.90;98.30
48162;DHT22;33950;48.154;16.316;2022-10-16T13:04:29;22.00;98.20
48162;DHT22;33950;48.154;16.316;2022-10-16T13:07:37;22.00;98.30
48162;DHT22;33950;48.154;16.316;2022-10-16T13:10:34;22.10;98.20
48162;DHT22;33950;48.154;16.316;2022-10-16T13:13:42;22.40;97.60
48162;DHT22;33950;48.154;16.316;2022-10-16T13:16:39;22.40;97.40
48162;DHT22;33950;48.154;16.316;2022-10-16T13:19:37;22.40;97.50
48162;DHT22;33950;48.154;16.316;2022-10-16T13:22:29;22.30;97.40
48162;DHT22;33950;48.154;16.316;2022-10-16T13:25:23;22.00;97.70
48162;DHT22;33950;48.154;16.316;2022-10-16T13:28:12;22.20;98.40
48162;DHT22;33950;48.154;16.316;2022-10-16T13:31:00;22.40;98.00
48162;DHT22;33950;48.154;16.316;2022-10-16T13:33:49;22.50;97.90
48162;DHT22;33950;48.154;16.316;2022-10-16T13:36:46;22.30;97.60
48162;DHT22;33950;48.154;16.316;2022-10-16T13:39:32;22.10;98.00
48162;DHT22;33950;48.154;16.316;2022-10-16T13:42:23;22.00;98.00
48162;DHT22;33950;48.154;16.316;2022-10-16T13:45:20;22.00;98.20
48162;DHT22;33950;48.154;16.316;2022-10-16T13:48:09;22.20;97.90
48162;DHT22;33950;48.154;16.316;2022-10-16T13:50:59;22.30;97.90
48162;DHT22;33950;48.154;16.316;2022-10-16T13:53:49;22.40;98.20
48162;DHT22;33950;48.154;16.316;2022-10-16T13:56:35;22.70;97.40
48162;DHT22;33950;48.154;16.316;2022-10-16T13:59:26;22.60;97.40
48162;DHT22;33950;48.154;16.316;2022-10-16T14:02:21;22.70;97.50
48162;DHT22;33950;48.154;16.316;2022-10-16T14:05:09;22.80;97.10
48162;DHT22;33950;48.154;16.316;2022-10-16T14:07:56;22.80;97.20
48162;DHT22;33950;48.154;16.316;2022-10-16T14:10:48;22.80;96.80
48162;DHT22;33950;48.154;16.316;2022-10-16T14:13:44;22.80;96.60
48162;DHT22;33950;48.154;16.316;2022-10-16T14:16:31;22.60;96.80
48162;DHT22;33950;48.154;16.316;2022-10-16T14:19:23;22.40;96.70
48162;DHT22;33950;48.154;16.316;2022-10-16T14:22:30;22.20;97.00
48162;DHT22;33950;48.154;16.316;2022-10-16T14:25:25;22.00;97.20
48162;DHT22;33950;48.154;16.316;2022-10-16T14:28:21;21.80;97.30
48162;DHT22;33950;48.154;16.316;2022-10-16T14:31:24;21.60;97.50
48162;DHT22;33950;48.154;16.316;2022-10-16T14:34:24;21.60;97.70
48162;DHT22;33950;48.154;16.316;2022-10-16T14:37:24;21.60;97.90
48162;DHT22;33950;48.154;16.316;2022-10-16T14:40:14;21.70;97.70
48162;DHT22;33950;48.154;16.316;2022-10-16T14:43:01;21.80;97.60
48162;DHT22;33950;48.154;16.316;2022-10-16T14:45:54;22.00;97.50
48162;DHT22;33950;48.154;16.316;2022-10-16T14:48:41;22.00;97.40
48162;DHT22;33950;48.154;16.316;2022-10-16T14:51:28;22.00;97.40
48162;DHT22;33950;48.154;16.316;2022-10-16T14:54:16;21.90;97.40
48162;DHT22;33950;48.154;16.316;2022-10-16T14:57:02;21.80;97.50
48162;DHT22;33950;48.154;16.316;2022-10-16T14:59:49;21.70;97.40
48162;DHT22;33950;48.154;16.316;2022-10-16T15:02:40;21.60;97.50
48162;DHT22;33950;48.154;16.316;2022-10-16T15:05:27;21.50;97.90
48162;DHT22;33950;48.154;16.316;2022-10-16T15:08:13;21.40;98.40
48162;DHT22;33950;48.154;16.316;2022-10-16T15:10:59;21.40;98.70
48162;DHT22;33950;48.154;16.316;2022-10-16T15:13:46;21.40;98.90
48162;DHT22;33950;48.154;16.316;2022-10-16T15:16:32;21.40;99.10
48162;DHT22;33950;48.154;16.316;2022-10-16T15:19:20;21.30;98.90
48162;DHT22;33950;48.154;16.316;2022-10-16T15:22:06;21.30;98.90
48162;DHT22;33950;48.154;16.316;2022-10-16T15:30:26;21.10;98.90
48162;DHT22;33950;48.154;16.316;2022-10-16T15:33:14;21.10;99.10
48162;DHT22;33950;48.154;16.316;2022-10-16T15:36:02;20.90;99.60
48162;DHT22;33950;48.154;16.316;2022-10-16T15:38:49;20.90;99.80
48162;DHT22;33950;48.154;16.316;2022-10-16T15:41:35;20.80;99.70
48162;DHT22;33950;48.154;16.316;2022-10-16T15:44:21;20.70;99.80
48162;DHT22;33950;48.154;16.316;2022-10-16T15:47:11;20.70;99.90
48162;DHT22;33950;48.154;16.316;2022-10-16T15:49:58;20.60;99.90
48162;DHT22;33950;48.154;16.316;2022-10-16T15:52:46;20.50;99.90
48162;DHT22;33950;48.154;16.316;2022-10-16T15:55:33;20.50;99.90
48162;DHT22;33950;48.154;16.316;2022-10-16T15:58:22;20.40;99.90
48162;DHT22;33950;48.154;16.316;2022-10-16T16:01:08;20.40;99.90
48162;DHT22;33950;48.154;16.316;2022-10-16T16:03:56;20.40;99.90
48162;DHT22;33950;48.154;16.316;2022-10-16T16:06:45;20.30;99.90
48162;DHT22;33950;48.154;16.316;2022-10-16T16:09:32;20.20;99.90
48162;DHT22;33950;48.154;16.316;2022-10-16T16:12:19;20.10;99.90
48162;DHT22;33950;48.154;16.316;2022-10-16T16:15:06;20.10;99.90
48162;DHT22;33950;48.154;16.316;2022-10-16T16:17:53;20.10;99.90
48162;DHT22;33950;48.154;16.316;2022-10-16T16:20:39;20.00;99.90
48162;DHT22;33950;48.154;16.316;2022-10-16T16:23:25;19.90;99.90
48162;DHT22;33950;48.154;16.316;2022-10-16T16:26:14;19.90;99.90
48162;DHT22;33950;48.154;16.316;2022-10-16T16:29:00;19.80;99.90
48162;DHT22;33950;48.154;16.316;2022-10-16T16:31:46;19.80;99.90
48162;DHT22;33950;48.154;16.316;2022-10-16T16:34:33;19.80;99.90
48162;DHT22;33950;48.154;16.316;2022-10-16T16:37:19;19.70;99.90
48162;DHT22;33950;48.154;16.316;2022-10-16T16:40:05;19.70;99.90
48162;DHT22;33950;48.154;16.316;2022-10-16T16:42:53;19.60;99.90
48162;DHT22;33950;48.154;16.316;2022-10-16T16:45:39;19.60;99.90
48162;DHT22;33950;48.154;16.316;2022-10-16T16:48:25;19.60;99.90
48162;DHT22;33950;48.154;16.316;2022-10-16T16:51:12;19.60;99.90
48162;DHT22;33950;48.154;16.316;2022-10-16T16:54:02;19.50;99.80
48162;DHT22;33950;48.154;16.316;2022-10-16T16:56:48;19.50;99.80
48162;DHT22;33950;48.154;16.316;2022-10-16T16:59:36;19.50;99.90
48162;DHT22;33950;48.154;16.316;2022-10-16T17:02:22;19.40;99.90
48162;DHT22;33950;48.154;16.316;2022-10-16T17:05:08;19.30;99.90
48162;DHT22;33950;48.154;16.316;2022-10-16T17:07:55;19.30;99.90
48162;DHT22;33950;48.154;16.316;2022-10-16T17:10:44;19.30;99.90
48162;DHT22;33950;48.154;16.316;2022-10-16T17:13:32;19.20;99.90
48162;DHT22;33950;48.154;16.316;2022-10-16T17:16:26;19.10;99.90
48162;DHT22;33950;48.154;16.316;2022-10-16T17:19:14;19.10;99.90
48162;DHT22;33950;48.154;16.316;2022-10-16T17:22:01;19.00;99.90
48162;DHT22;33950;48.154;16.316;2022-10-16T17:24:48;19.00;99.90
48162;DHT22;33950;48.154;16.316;2022-10-16T17:27:35;19.00;99.90
48162;DHT22;33950;48.154;16.316;2022-10-16T17:30:23;18.90;99.90
48162;DHT22;33950;48.154;16.316;2022-10-16T17:33:11;18.80;99.90
48162;DHT22;33950;48.154;16.316;2022-10-16T17:35:58;18.80;99.90
48162;DHT22;33950;48.154;16.316;2022-10-16T17:38:44;18.80;99.90
48162;DHT22;33950;48.154;16.316;2022-10-16T17:41:30;18.80;99.90
48162;DHT22;33950;48.154;16.316;2022-10-16T17:44:17;18.80;99.90
48162;DHT22;33950;48.154;16.316;2022-10-16T17:47:06;18.80;99.90